Flugplatz Memmingen Allgau

Bericht für EDJA

vom 07.12. um 17:50 UTC

Wind 4 kt aus 140°

Sichtweite 10 km oder mehr

gute Sicht, keine Wolken < 5000 ft, keine CB, keine Wettererscheinungen (CAVOK)

Temperatur -2.0°C

Taupunkt -4.0°C

Luftfeuchtigkeit 86%

Luftdruck 1008 hPa

EDJA 071750Z 14004KT CAVOK M02/M04 Q1008

Prognose für EDJA

vom 07.12. um 17:00 UTC

Zwischen 18:00 UTC und 03:00 UTC

Wind 4 kt aus 140°

Sichtweite 10 km oder mehr

keine signifikanten Wettererscheinungen

keine Wolken

TAF EDJA 071700Z 0718/0803 14004KT CAVOK
Impressum